WetterOnline ( https://www.wetteronline.de )

Wetter aktuell Alfeld

Aktuelles Wetter: Alfeld (148m)

6-stündlich | Neueste Meldungen
Ortszeit Temperatur Wetter
Sa, 14.12. 7:00 4.2° C Sprühregen
Sa, 14.12. 1:00 3.5° C bedeckt
Fr, 13.12. 19:00 1.8° C bewölkt
Fr, 13.12. 13:00 2.7° C bedeckt
Fr, 13.12. 7:00 1.2° C wolkig
Fr, 13.12. 1:00 2.2° C bedeckt
Do, 12.12. 19:00 3.6° C wolkig
Do, 12.12. 13:00 3.9° C bedeckt
Ortszeit Temperatur Wetter
Sa, 14.12. 11:00 3.7° C Regen
Sa, 14.12. 10:50 3.7° C bewölkt
Sa, 14.12. 10:40 3.7° C Sprühregen
Sa, 14.12. 10:30 3.5° C leichter Regen
Sa, 14.12. 10:20 3.5° C leichter Regen
Sa, 14.12. 10:10 3.4° C leichter Regen
Sa, 14.12. 10:00 3.2° C Sprühregen
Sa, 14.12. 9:30 3.3° C leichter Regen
Sa, 14.12. 9:00 3.4° C leichter Regen
Ortszeit Relative Feuchte Sichtweite
Sa, 14.12. 7:00 84% 30 km
Sa, 14.12. 1:00 92% 24 km
Fr, 13.12. 19:00 91% 20 km
Fr, 13.12. 13:00 78% 55 km
Fr, 13.12. 7:00 77% 50 km
Fr, 13.12. 1:00 79% >70 km
Do, 12.12. 19:00 84% 35 km
Do, 12.12. 13:00 84% 40 km
Ortszeit Relative Feuchte Sichtweite
Sa, 14.12. 11:00 85% >70 km
Sa, 14.12. 10:50 85% -
Sa, 14.12. 10:40 85% -
Sa, 14.12. 10:30 86% 17 km
Sa, 14.12. 10:20 86% -
Sa, 14.12. 10:10 88% -
Sa, 14.12. 10:00 87% 12 km
Sa, 14.12. 9:30 88% 20 km
Sa, 14.12. 9:00 88% 9 km
Ortszeit Niederschlagsmenge Niederschlagsart
Sa, 14.12. 7:00 2 l/m2 in 12 Std. Regen
Sa, 14.12. 1:00 2 l/m2 in 6 Std. Regen
Fr, 13.12. 19:00 0.1 l/m2 in 12 Std. Regen
Fr, 13.12. 13:00 0.1 l/m2 in 6 Std. Schnee, Sprühregen
Fr, 13.12. 7:00 0.0 l/m2 in 12 Std. -
Fr, 13.12. 1:00 0.0 l/m2 in 6 Std. -
Do, 12.12. 19:00 0.1 l/m2 in 12 Std. Sprühregen
Do, 12.12. 13:00 0.1 l/m2 in 6 Std. Regen
Ortszeit Niederschlagsmenge Niederschlagsart
Sa, 14.12. 11:00 0.2 l/m2 in 1 Std. Regen
Sa, 14.12. 10:50 keine Meldung -
Sa, 14.12. 10:40 keine Meldung -
Sa, 14.12. 10:30 0.1 l/m2 in 1 Std. -
Sa, 14.12. 10:20 keine Meldung -
Sa, 14.12. 10:10 keine Meldung -
Sa, 14.12. 10:00 0.8 l/m2 in 1 Std. Regen
Sa, 14.12. 9:30 0.6 l/m2 in 1 Std. -
Sa, 14.12. 9:00 0.7 l/m2 in 1 Std. Regen
Ortszeit Stärke Spitze Richtung
km/h Bft. km/h Grad Sektor
Sa, 14.12. 7:00 18 3 32 120° SO
Sa, 14.12. 1:00 7 2 22 200° S
Fr, 13.12. 19:00 11 2 29 120° SO
Fr, 13.12. 13:00 18 3 43 140° SO
Fr, 13.12. 7:00 14 3 43 120° SO
Fr, 13.12. 1:00 17 3 39 140° SO
Do, 12.12. 19:00 14 3 25 140° SO
Do, 12.12. 13:00 14 3 29 140° SO
Ortszeit Stärke Spitze Richtung
km/h Bft. km/h Grad Sektor
Sa, 14.12. 11:00 9 2 26 300° NW
Sa, 14.12. 10:50 9 2 - 300° NW
Sa, 14.12. 10:40 7 2 - 250° W
Sa, 14.12. 10:30 13 3 26 250° W
Sa, 14.12. 10:20 13 3 - 250° W
Sa, 14.12. 10:10 11 2 - 230° SW
Sa, 14.12. 10:00 6 1 15 170° S
Sa, 14.12. 9:30 7 2 15 140° SO
Sa, 14.12. 9:00 9 2 24 140° SO
Ortszeit Untergrenze Bedeckung Gattung
total tief tief mittel hoch
Sa, 14.12. 7:00 450 m 7/8 7/8 - - -
Sa, 14.12. 1:00 210 m 8/8 8/8 - - -
Fr, 13.12. 19:00 300 m 8/8 7/8 - - -
Fr, 13.12. 13:00 630 m 8/8 8/8 - - -
Fr, 13.12. 7:00 630 m 8/8 2/8 - - -
Fr, 13.12. 1:00 540 m 8/8 8/8 - - -
Do, 12.12. 19:00 450 m 6/8 6/8 - - -
Do, 12.12. 13:00 360 m 8/8 8/8 - - -
Ortszeit Bedeckungsgrad in Achtel und Wolkenuntergrenze
Sa, 14.12. 11:00 7(360m) 7(510m) 7(4200m)
Sa, 14.12. 10:50 7(360m) 7(510m) 7(4200m)
Sa, 14.12. 10:40 7(360m) 7(540m)
Sa, 14.12. 10:30 7(360m) 8(540m)
Sa, 14.12. 10:20 7(360m) 8(540m)
Sa, 14.12. 10:10 7(390m) 8(750m)
Sa, 14.12. 10:00 3(420m) 7(840m) 8(990m)
Sa, 14.12. 9:30 1(330m) 3(690m) 8(900m)
Sa, 14.12. 9:00 7(360m) 7(540m) 8(840m)
Ortszeit Luftdruck NN (hPa) Tendenz (hPa in 3 Std.)
Sa, 14.12. 7:00 983 - 1,7
Sa, 14.12. 1:00 985 + 1,2
Fr, 13.12. 19:00 982 + 1,8
Fr, 13.12. 13:00 979 - 0,8
Fr, 13.12. 7:00 982 - 3,7
Fr, 13.12. 1:00 991 - 4,2
Do, 12.12. 19:00 998 - 2,0
Do, 12.12. 13:00 1002 - 1,4
Ortszeit Luftdruck NN (hPa) Tendenz (hPa in 3 Std.)
Sa, 14.12. 11:00 987 + 4,2
Sa, 14.12. 10:50 987 keine Meldung
Sa, 14.12. 10:40 987 keine Meldung
Sa, 14.12. 10:30 987 + 3,6
Sa, 14.12. 10:20 987 keine Meldung
Sa, 14.12. 10:10 986 keine Meldung
Sa, 14.12. 10:00 985 + 2,1
Sa, 14.12. 9:30 984 + 0,8
Sa, 14.12. 9:00 984 - 0,2
Ortszeit Schneehöhe (cm)
Sa, 14.12. 7:00 0
Sa, 14.12. 1:00 0
Fr, 13.12. 19:00 0
Fr, 13.12. 13:00 0
Fr, 13.12. 7:00 0
Fr, 13.12. 1:00 0
Do, 12.12. 19:00 0
Do, 12.12. 13:00 0
Ortszeit Schneehöhe (cm)
Sa, 14.12. 11:00 0
Sa, 14.12. 10:50 0
Sa, 14.12. 10:40 0
Sa, 14.12. 10:30 0
Sa, 14.12. 10:20 0
Sa, 14.12. 10:10 0
Sa, 14.12. 10:00 0
Sa, 14.12. 9:30 0
Sa, 14.12. 9:00 0
Link zu dieser Seite / Seite empfehlen

Das Wetter in ...